sensor_id;sensor_type;location;lat;lon;timestamp;P1;durP1;ratioP1;P2;durP2;ratioP2
14681;SDS011;7429;52.498;13.480;2022-10-16T00:02:13;11.77;;;10.87;;
14681;SDS011;7429;52.498;13.480;2022-10-16T00:05:18;11.87;;;10.97;;
14681;SDS011;7429;52.498;13.480;2022-10-16T00:08:24;14.60;;;11.77;;
14681;SDS011;7429;52.498;13.480;2022-10-16T00:11:29;11.77;;;10.80;;
14681;SDS011;7429;52.498;13.480;2022-10-16T00:14:35;15.53;;;14.30;;
14681;SDS011;7429;52.498;13.480;2022-10-16T00:17:38;16.80;;;15.63;;
14681;SDS011;7429;52.498;13.480;2022-10-16T00:20:41;11.97;;;11.10;;
14681;SDS011;7429;52.498;13.480;2022-10-16T00:24:04;11.80;;;9.53;;
14681;SDS011;7429;52.498;13.480;2022-10-16T00:27:11;11.07;;;9.40;;
14681;SDS011;7429;52.498;13.480;2022-10-16T00:30:16;9.50;;;8.80;;
14681;SDS011;7429;52.498;13.480;2022-10-16T00:33:20;14.77;;;8.60;;
14681;SDS011;7429;52.498;13.480;2022-10-16T00:36:24;11.33;;;10.43;;
14681;SDS011;7429;52.498;13.480;2022-10-16T00:39:28;8.23;;;6.83;;
14681;SDS011;7429;52.498;13.480;2022-10-16T00:42:32;11.47;;;8.17;;
14681;SDS011;7429;52.498;13.480;2022-10-16T00:45:35;8.77;;;8.13;;
14681;SDS011;7429;52.498;13.480;2022-10-16T00:48:39;6.57;;;5.97;;
14681;SDS011;7429;52.498;13.480;2022-10-16T00:51:43;6.33;;;5.80;;
14681;SDS011;7429;52.498;13.480;2022-10-16T00:54:48;6.87;;;6.17;;
14681;SDS011;7429;52.498;13.480;2022-10-16T00:57:54;11.77;;;6.73;;
14681;SDS011;7429;52.498;13.480;2022-10-16T01:00:57;5.50;;;5.10;;
14681;SDS011;7429;52.498;13.480;2022-10-16T01:04:01;7.83;;;4.80;;
14681;SDS011;7429;52.498;13.480;2022-10-16T01:07:06;6.33;;;5.80;;
14681;SDS011;7429;52.498;13.480;2022-10-16T01:10:17;10.30;;;6.40;;
14681;SDS011;7429;52.498;13.480;2022-10-16T01:13:32;7.87;;;5.20;;
14681;SDS011;7429;52.498;13.480;2022-10-16T01:16:42;5.47;;;4.93;;
14681;SDS011;7429;52.498;13.480;2022-10-16T01:20:00;5.60;;;5.17;;
14681;SDS011;7429;52.498;13.480;2022-10-16T01:23:15;5.00;;;4.60;;
14681;SDS011;7429;52.498;13.480;2022-10-16T01:26:34;11.10;;;7.73;;
14681;SDS011;7429;52.498;13.480;2022-10-16T01:30:04;7.70;;;4.27;;
14681;SDS011;7429;52.498;13.480;2022-10-16T01:33:16;6.83;;;4.17;;
14681;SDS011;7429;52.498;13.480;2022-10-16T01:36:25;4.87;;;4.27;;
14681;SDS011;7429;52.498;13.480;2022-10-16T01:39:32;5.97;;;4.57;;
14681;SDS011;7429;52.498;13.480;2022-10-16T01:42:42;14.07;;;4.73;;
14681;SDS011;7429;52.498;13.480;2022-10-16T01:45:51;11.27;;;4.20;;
14681;SDS011;7429;52.498;13.480;2022-10-16T01:48:55;10.43;;;4.53;;
14681;SDS011;7429;52.498;13.480;2022-10-16T01:51:59;11.47;;;4.40;;
14681;SDS011;7429;52.498;13.480;2022-10-16T01:55:08;7.37;;;4.97;;
14681;SDS011;7429;52.498;13.480;2022-10-16T01:58:19;8.13;;;5.67;;
14681;SDS011;7429;52.498;13.480;2022-10-16T02:01:25;9.93;;;5.83;;
14681;SDS011;7429;52.498;13.480;2022-10-16T02:04:32;5.33;;;4.83;;
14681;SDS011;7429;52.498;13.480;2022-10-16T02:07:38;7.57;;;6.83;;
14681;SDS011;7429;52.498;13.480;2022-10-16T02:10:45;5.97;;;5.57;;
14681;SDS011;7429;52.498;13.480;2022-10-16T02:13:50;5.23;;;4.93;;
14681;SDS011;7429;52.498;13.480;2022-10-16T02:17:01;5.97;;;5.47;;
14681;SDS011;7429;52.498;13.480;2022-10-16T02:20:04;6.47;;;5.87;;
14681;SDS011;7429;52.498;13.480;2022-10-16T02:23:08;5.60;;;5.20;;
14681;SDS011;7429;52.498;13.480;2022-10-16T02:26:20;7.57;;;5.10;;
14681;SDS011;7429;52.498;13.480;2022-10-16T02:29:33;10.13;;;6.87;;
14681;SDS011;7429;52.498;13.480;2022-10-16T02:32:41;6.67;;;5.67;;
14681;SDS011;7429;52.498;13.480;2022-10-16T02:35:47;6.10;;;5.60;;
14681;SDS011;7429;52.498;13.480;2022-10-16T02:38:53;6.80;;;5.37;;
14681;SDS011;7429;52.498;13.480;2022-10-16T02:41:56;5.43;;;5.03;;
14681;SDS011;7429;52.498;13.480;2022-10-16T02:45:01;6.17;;;5.63;;
14681;SDS011;7429;52.498;13.480;2022-10-16T02:48:04;6.83;;;6.23;;
14681;SDS011;7429;52.498;13.480;2022-10-16T02:51:08;5.93;;;5.43;;
14681;SDS011;7429;52.498;13.480;2022-10-16T02:54:11;6.60;;;5.15;;
14681;SDS011;7429;52.498;13.480;2022-10-16T02:57:14;5.28;;;4.78;;
14681;SDS011;7429;52.498;13.480;2022-10-16T03:00:19;6.40;;;5.97;;
14681;SDS011;7429;52.498;13.480;2022-10-16T03:03:22;5.97;;;5.47;;
14681;SDS011;7429;52.498;13.480;2022-10-16T03:06:25;5.80;;;4.95;;
14681;SDS011;7429;52.498;13.480;2022-10-16T03:09:28;4.68;;;4.38;;
14681;SDS011;7429;52.498;13.480;2022-10-16T03:12:31;5.03;;;4.47;;
14681;SDS011;7429;52.498;13.480;2022-10-16T03:15:36;8.45;;;4.05;;
14681;SDS011;7429;52.498;13.480;2022-10-16T03:18:39;6.43;;;4.63;;
14681;SDS011;7429;52.498;13.480;2022-10-16T03:21:42;7.10;;;4.77;;
14681;SDS011;7429;52.498;13.480;2022-10-16T03:24:45;5.43;;;5.03;;
14681;SDS011;7429;52.498;13.480;2022-10-16T03:27:48;4.67;;;4.27;;
14681;SDS011;7429;52.498;13.480;2022-10-16T03:30:52;5.77;;;4.20;;
14681;SDS011;7429;52.498;13.480;2022-10-16T03:33:56;7.37;;;4.60;;
14681;SDS011;7429;52.498;13.480;2022-10-16T03:36:59;5.67;;;5.23;;
14681;SDS011;7429;52.498;13.480;2022-10-16T03:40:02;8.97;;;4.57;;
14681;SDS011;7429;52.498;13.480;2022-10-16T03:43:06;5.83;;;4.23;;
14681;SDS011;7429;52.498;13.480;2022-10-16T03:46:10;11.00;;;4.57;;
14681;SDS011;7429;52.498;13.480;2022-10-16T03:49:14;10.53;;;4.67;;
14681;SDS011;7429;52.498;13.480;2022-10-16T03:52:17;4.63;;;4.20;;
14681;SDS011;7429;52.498;13.480;2022-10-16T03:55:21;5.40;;;3.97;;
14681;SDS011;7429;52.498;13.480;2022-10-16T03:58:24;14.67;;;4.63;;
14681;SDS011;7429;52.498;13.480;2022-10-16T04:01:28;5.00;;;4.60;;
14681;SDS011;7429;52.498;13.480;2022-10-16T04:04:31;7.40;;;5.27;;
14681;SDS011;7429;52.498;13.480;2022-10-16T04:07:34;6.03;;;4.90;;
14681;SDS011;7429;52.498;13.480;2022-10-16T04:10:37;6.80;;;5.53;;
14681;SDS011;7429;52.498;13.480;2022-10-16T04:13:42;4.50;;;4.10;;
14681;SDS011;7429;52.498;13.480;2022-10-16T04:16:46;9.67;;;5.00;;
14681;SDS011;7429;52.498;13.480;2022-10-16T04:19:49;4.93;;;4.63;;
14681;SDS011;7429;52.498;13.480;2022-10-16T04:22:53;12.57;;;5.10;;
14681;SDS011;7429;52.498;13.480;2022-10-16T04:25:56;4.63;;;4.33;;
14681;SDS011;7429;52.498;13.480;2022-10-16T04:28:59;5.67;;;4.93;;
14681;SDS011;7429;52.498;13.480;2022-10-16T04:32:03;6.57;;;4.60;;
14681;SDS011;7429;52.498;13.480;2022-10-16T04:35:07;6.07;;;5.33;;
14681;SDS011;7429;52.498;13.480;2022-10-16T04:38:11;5.30;;;4.43;;
14681;SDS011;7429;52.498;13.480;2022-10-16T04:41:14;4.90;;;4.43;;
14681;SDS011;7429;52.498;13.480;2022-10-16T04:44:17;5.93;;;5.13;;
14681;SDS011;7429;52.498;13.480;2022-10-16T04:47:22;4.93;;;4.47;;
14681;SDS011;7429;52.498;13.480;2022-10-16T04:50:25;10.77;;;5.10;;
14681;SDS011;7429;52.498;13.480;2022-10-16T04:53:39;9.83;;;5.40;;
14681;SDS011;7429;52.498;13.480;2022-10-16T04:56:42;7.43;;;5.60;;
14681;SDS011;7429;52.498;13.480;2022-10-16T04:59:49;5.87;;;5.27;;
14681;SDS011;7429;52.498;13.480;2022-10-16T05:02:53;5.07;;;4.77;;
14681;SDS011;7429;52.498;13.480;2022-10-16T05:05:58;9.80;;;5.43;;
14681;SDS011;7429;52.498;13.480;2022-10-16T05:09:02;6.47;;;4.80;;
14681;SDS011;7429;52.498;13.480;2022-10-16T05:12:14;18.53;;;5.37;;
14681;SDS011;7429;52.498;13.480;2022-10-16T05:15:17;12.13;;;4.80;;
14681;SDS011;7429;52.498;13.480;2022-10-16T05:18:24;6.33;;;4.97;;
14681;SDS011;7429;52.498;13.480;2022-10-16T05:21:27;5.00;;;4.57;;
14681;SDS011;7429;52.498;13.480;2022-10-16T05:24:30;8.20;;;5.03;;
14681;SDS011;7429;52.498;13.480;2022-10-16T05:27:33;6.10;;;5.60;;
14681;SDS011;7429;52.498;13.480;2022-10-16T05:30:37;10.93;;;4.87;;
14681;SDS011;7429;52.498;13.480;2022-10-16T05:33:41;18.40;;;5.37;;
14681;SDS011;7429;52.498;13.480;2022-10-16T05:36:48;6.23;;;4.60;;
14681;SDS011;7429;52.498;13.480;2022-10-16T05:39:51;6.40;;;4.93;;
14681;SDS011;7429;52.498;13.480;2022-10-16T05:42:54;5.80;;;4.83;;
14681;SDS011;7429;52.498;13.480;2022-10-16T05:46:00;7.57;;;5.40;;
14681;SDS011;7429;52.498;13.480;2022-10-16T05:49:07;10.17;;;7.53;;
14681;SDS011;7429;52.498;13.480;2022-10-16T05:52:10;6.43;;;6.03;;
14681;SDS011;7429;52.498;13.480;2022-10-16T05:55:13;7.07;;;5.73;;
14681;SDS011;7429;52.498;13.480;2022-10-16T05:58:20;5.83;;;5.33;;
14681;SDS011;7429;52.498;13.480;2022-10-16T06:01:23;10.53;;;6.00;;
14681;SDS011;7429;52.498;13.480;2022-10-16T06:04:27;5.43;;;4.80;;
14681;SDS011;7429;52.498;13.480;2022-10-16T06:07:33;5.90;;;5.40;;
14681;SDS011;7429;52.498;13.480;2022-10-16T06:10:39;10.13;;;5.93;;
14681;SDS011;7429;52.498;13.480;2022-10-16T06:13:42;7.50;;;5.50;;
14681;SDS011;7429;52.498;13.480;2022-10-16T06:16:47;5.23;;;4.13;;
14681;SDS011;7429;52.498;13.480;2022-10-16T06:19:51;5.67;;;5.27;;
14681;SDS011;7429;52.498;13.480;2022-10-16T06:23:02;5.47;;;5.07;;
14681;SDS011;7429;52.498;13.480;2022-10-16T06:26:16;7.17;;;4.90;;
14681;SDS011;7429;52.498;13.480;2022-10-16T06:29:22;9.27;;;4.80;;
14681;SDS011;7429;52.498;13.480;2022-10-16T06:32:25;7.23;;;5.53;;
14681;SDS011;7429;52.498;13.480;2022-10-16T06:35:30;7.33;;;6.67;;
14681;SDS011;7429;52.498;13.480;2022-10-16T06:38:36;6.63;;;6.13;;
14681;SDS011;7429;52.498;13.480;2022-10-16T06:42:17;6.93;;;6.23;;
14681;SDS011;7429;52.498;13.480;2022-10-16T06:46:02;9.87;;;5.33;;
14681;SDS011;7429;52.498;13.480;2022-10-16T06:49:10;7.23;;;6.73;;
14681;SDS011;7429;52.498;13.480;2022-10-16T06:52:14;6.37;;;5.93;;
14681;SDS011;7429;52.498;13.480;2022-10-16T06:55:18;6.67;;;6.27;;
14681;SDS011;7429;52.498;13.480;2022-10-16T06:58:30;7.20;;;6.70;;
14681;SDS011;7429;52.498;13.480;2022-10-16T07:01:33;6.80;;;6.40;;
14681;SDS011;7429;52.498;13.480;2022-10-16T07:04:36;8.20;;;7.77;;
14681;SDS011;7429;52.498;13.480;2022-10-16T07:07:48;7.57;;;6.93;;
14681;SDS011;7429;52.498;13.480;2022-10-16T07:10:59;10.20;;;9.70;;
14681;SDS011;7429;52.498;13.480;2022-10-16T07:14:08;11.47;;;10.77;;
14681;SDS011;7429;52.498;13.480;2022-10-16T07:17:22;7.57;;;6.90;;
14681;SDS011;7429;52.498;13.480;2022-10-16T07:20:27;10.73;;;10.13;;
14681;SDS011;7429;52.498;13.480;2022-10-16T07:23:32;10.43;;;9.83;;
14681;SDS011;7429;52.498;13.480;2022-10-16T07:26:36;9.82;;;8.95;;
14681;SDS011;7429;52.498;13.480;2022-10-16T07:29:41;7.55;;;6.63;;
14681;SDS011;7429;52.498;13.480;2022-10-16T07:32:44;5.63;;;5.22;;
14681;SDS011;7429;52.498;13.480;2022-10-16T07:35:47;7.07;;;5.10;;
14681;SDS011;7429;52.498;13.480;2022-10-16T07:38:53;5.22;;;4.82;;
14681;SDS011;7429;52.498;13.480;2022-10-16T07:42:00;4.85;;;3.88;;
14681;SDS011;7429;52.498;13.480;2022-10-16T07:45:04;4.40;;;4.07;;
14681;SDS011;7429;52.498;13.480;2022-10-16T07:48:08;5.20;;;4.80;;
14681;SDS011;7429;52.498;13.480;2022-10-16T07:51:12;5.00;;;4.65;;
14681;SDS011;7429;52.498;13.480;2022-10-16T07:54:19;3.70;;;3.40;;
14681;SDS011;7429;52.498;13.480;2022-10-16T07:57:22;3.88;;;3.47;;
14681;SDS011;7429;52.498;13.480;2022-10-16T08:00:25;5.90;;;5.03;;
14681;SDS011;7429;52.498;13.480;2022-10-16T08:03:31;6.68;;;6.38;;
14681;SDS011;7429;52.498;13.480;2022-10-16T08:06:38;4.32;;;4.00;;
14681;SDS011;7429;52.498;13.480;2022-10-16T08:09:48;3.92;;;3.53;;
14681;SDS011;7429;52.498;13.480;2022-10-16T08:12:52;5.30;;;2.97;;
14681;SDS011;7429;52.498;13.480;2022-10-16T08:16:00;4.75;;;3.50;;
14681;SDS011;7429;52.498;13.480;2022-10-16T08:19:08;4.88;;;4.68;;
14681;SDS011;7429;52.498;13.480;2022-10-16T08:22:14;8.02;;;3.88;;
14681;SDS011;7429;52.498;13.480;2022-10-16T08:25:19;4.28;;;3.67;;
14681;SDS011;7429;52.498;13.480;2022-10-16T08:28:24;5.22;;;3.42;;
14681;SDS011;7429;52.498;13.480;2022-10-16T08:31:27;5.03;;;3.45;;
14681;SDS011;7429;52.498;13.480;2022-10-16T08:34:31;7.05;;;6.50;;
14681;SDS011;7429;52.498;13.480;2022-10-16T08:37:34;4.88;;;4.55;;
14681;SDS011;7429;52.498;13.480;2022-10-16T08:40:46;4.82;;;4.53;;
14681;SDS011;7429;52.498;13.480;2022-10-16T08:44:05;4.47;;;4.28;;
14681;SDS011;7429;52.498;13.480;2022-10-16T08:47:32;4.28;;;4.00;;
14681;SDS011;7429;52.498;13.480;2022-10-16T08:51:00;4.13;;;2.90;;
14681;SDS011;7429;52.498;13.480;2022-10-16T08:54:06;2.85;;;2.60;;
14681;SDS011;7429;52.498;13.480;2022-10-16T08:57:31;8.23;;;3.33;;
14681;SDS011;7429;52.498;13.480;2022-10-16T09:00:35;3.15;;;2.95;;
14681;SDS011;7429;52.498;13.480;2022-10-16T09:03:45;3.60;;;3.13;;
14681;SDS011;7429;52.498;13.480;2022-10-16T09:07:04;14.73;;;2.88;;
14681;SDS011;7429;52.498;13.480;2022-10-16T09:10:16;6.97;;;3.50;;
14681;SDS011;7429;52.498;13.480;2022-10-16T09:13:39;7.00;;;3.78;;
14681;SDS011;7429;52.498;13.480;2022-10-16T09:16:52;3.40;;;3.20;;
14681;SDS011;7429;52.498;13.480;2022-10-16T09:20:06;4.00;;;3.10;;
14681;SDS011;7429;52.498;13.480;2022-10-16T09:23:24;3.88;;;3.55;;
14681;SDS011;7429;52.498;13.480;2022-10-16T09:26:29;3.47;;;3.30;;
14681;SDS011;7429;52.498;13.480;2022-10-16T09:29:33;3.05;;;2.85;;
14681;SDS011;7429;52.498;13.480;2022-10-16T09:32:37;6.97;;;3.00;;
14681;SDS011;7429;52.498;13.480;2022-10-16T09:35:45;3.25;;;2.95;;
14681;SDS011;7429;52.498;13.480;2022-10-16T09:39:01;2.97;;;2.65;;
14681;SDS011;7429;52.498;13.480;2022-10-16T09:42:10;4.25;;;2.60;;
14681;SDS011;7429;52.498;13.480;2022-10-16T09:45:25;5.07;;;2.63;;
14681;SDS011;7429;52.498;13.480;2022-10-16T09:48:31;5.43;;;2.40;;
14681;SDS011;7429;52.498;13.480;2022-10-16T09:52:19;3.53;;;3.13;;
14681;SDS011;7429;52.498;13.480;2022-10-16T09:55:34;3.60;;;2.55;;
14681;SDS011;7429;52.498;13.480;2022-10-16T09:58:38;3.33;;;3.13;;
14681;SDS011;7429;52.498;13.480;2022-10-16T10:01:46;2.90;;;2.70;;
14681;SDS011;7429;52.498;13.480;2022-10-16T10:04:53;4.40;;;2.40;;
14681;SDS011;7429;52.498;13.480;2022-10-16T10:07:57;3.97;;;3.58;;
14681;SDS011;7429;52.498;13.480;2022-10-16T10:11:07;3.58;;;3.28;;
14681;SDS011;7429;52.498;13.480;2022-10-16T10:14:17;4.80;;;3.38;;
14681;SDS011;7429;52.498;13.480;2022-10-16T10:17:46;2.35;;;2.25;;
14681;SDS011;7429;52.498;13.480;2022-10-16T10:20:58;3.72;;;3.42;;
14681;SDS011;7429;52.498;13.480;2022-10-16T10:24:02;5.93;;;4.32;;
14681;SDS011;7429;52.498;13.480;2022-10-16T10:27:07;6.00;;;5.50;;
14681;SDS011;7429;52.498;13.480;2022-10-16T10:30:47;4.72;;;4.30;;
14681;SDS011;7429;52.498;13.480;2022-10-16T10:34:53;3.22;;;2.97;;
14681;SDS011;7429;52.498;13.480;2022-10-16T10:38:25;9.73;;;5.68;;
14681;SDS011;7429;52.498;13.480;2022-10-16T10:41:54;3.38;;;3.08;;
14681;SDS011;7429;52.498;13.480;2022-10-16T10:45:15;16.33;;;3.20;;
14681;SDS011;7429;52.498;13.480;2022-10-16T10:48:32;4.85;;;4.45;;
14681;SDS011;7429;52.498;13.480;2022-10-16T10:51:56;4.25;;;3.95;;
14681;SDS011;7429;52.498;13.480;2022-10-16T10:55:17;3.10;;;2.80;;
14681;SDS011;7429;52.498;13.480;2022-10-16T10:58:35;4.18;;;2.40;;
14681;SDS011;7429;52.498;13.480;2022-10-16T11:01:54;2.60;;;2.40;;
14681;SDS011;7429;52.498;13.480;2022-10-16T11:05:20;3.13;;;2.35;;
14681;SDS011;7429;52.498;13.480;2022-10-16T11:08:45;7.80;;;2.58;;
14681;SDS011;7429;52.498;13.480;2022-10-16T11:11:56;4.05;;;2.60;;
14681;SDS011;7429;52.498;13.480;2022-10-16T11:15:04;2.60;;;2.28;;
14681;SDS011;7429;52.498;13.480;2022-10-16T11:18:16;4.63;;;2.05;;
14681;SDS011;7429;52.498;13.480;2022-10-16T11:21:24;2.28;;;2.17;;
14681;SDS011;7429;52.498;13.480;2022-10-16T11:24:36;3.25;;;1.90;;
14681;SDS011;7429;52.498;13.480;2022-10-16T11:27:47;2.35;;;1.90;;
14681;SDS011;7429;52.498;13.480;2022-10-16T11:30:55;2.15;;;1.95;;
14681;SDS011;7429;52.498;13.480;2022-10-16T11:34:04;5.50;;;2.05;;
14681;SDS011;7429;52.498;13.480;2022-10-16T11:37:14;7.05;;;2.67;;
14681;SDS011;7429;52.498;13.480;2022-10-16T11:40:23;6.13;;;2.58;;
14681;SDS011;7429;52.498;13.480;2022-10-16T11:43:32;5.68;;;2.30;;
14681;SDS011;7429;52.498;13.480;2022-10-16T11:46:40;4.32;;;2.17;;
14681;SDS011;7429;52.498;13.480;2022-10-16T11:50:10;3.38;;;2.15;;
14681;SDS011;7429;52.498;13.480;2022-10-16T11:53:24;2.28;;;2.10;;
14681;SDS011;7429;52.498;13.480;2022-10-16T11:56:46;1.60;;;1.50;;
14681;SDS011;7429;52.498;13.480;2022-10-16T11:59:55;4.35;;;1.85;;
14681;SDS011;7429;52.498;13.480;2022-10-16T12:03:03;4.10;;;2.00;;
14681;SDS011;7429;52.498;13.480;2022-10-16T12:06:22;6.90;;;2.20;;
14681;SDS011;7429;52.498;13.480;2022-10-16T12:09:34;3.13;;;1.20;;
14681;SDS011;7429;52.498;13.480;2022-10-16T12:12:42;1.67;;;1.58;;
14681;SDS011;7429;52.498;13.480;2022-10-16T12:15:47;1.95;;;1.60;;
14681;SDS011;7429;52.498;13.480;2022-10-16T12:19:10;2.00;;;1.90;;
14681;SDS011;7429;52.498;13.480;2022-10-16T12:22:16;3.85;;;1.77;;
14681;SDS011;7429;52.498;13.480;2022-10-16T12:25:22;2.17;;;1.25;;
14681;SDS011;7429;52.498;13.480;2022-10-16T12:28:31;1.88;;;1.77;;
14681;SDS011;7429;52.498;13.480;2022-10-16T12:31:36;3.20;;;1.63;;
14681;SDS011;7429;52.498;13.480;2022-10-16T12:34:58;4.78;;;2.05;;
14681;SDS011;7429;52.498;13.480;2022-10-16T12:38:06;5.72;;;2.13;;
14681;SDS011;7429;52.498;13.480;2022-10-16T12:41:24;3.35;;;1.88;;
14681;SDS011;7429;52.498;13.480;2022-10-16T12:44:34;2.38;;;2.20;;
14681;SDS011;7429;52.498;13.480;2022-10-16T12:47:46;6.70;;;1.73;;
14681;SDS011;7429;52.498;13.480;2022-10-16T12:50:52;2.33;;;2.10;;
14681;SDS011;7429;52.498;13.480;2022-10-16T12:53:59;1.90;;;1.80;;
14681;SDS011;7429;52.498;13.480;2022-10-16T12:57:12;4.22;;;1.83;;
14681;SDS011;7429;52.498;13.480;2022-10-16T13:00:43;6.93;;;1.95;;
14681;SDS011;7429;52.498;13.480;2022-10-16T13:04:02;4.95;;;2.03;;
14681;SDS011;7429;52.498;13.480;2022-10-16T13:07:44;2.20;;;2.10;;
14681;SDS011;7429;52.498;13.480;2022-10-16T13:11:03;6.93;;;1.67;;
14681;SDS011;7429;52.498;13.480;2022-10-16T13:14:18;4.20;;;1.55;;
14681;SDS011;7429;52.498;13.480;2022-10-16T13:17:45;2.25;;;1.48;;
14681;SDS011;7429;52.498;13.480;2022-10-16T13:21:01;2.58;;;1.40;;
14681;SDS011;7429;52.498;13.480;2022-10-16T13:24:17;3.75;;;1.80;;
14681;SDS011;7429;52.498;13.480;2022-10-16T13:27:36;3.65;;;1.60;;
14681;SDS011;7429;52.498;13.480;2022-10-16T13:30:50;4.85;;;1.88;;
14681;SDS011;7429;52.498;13.480;2022-10-16T13:33:57;3.63;;;1.73;;
14681;SDS011;7429;52.498;13.480;2022-10-16T13:37:02;3.00;;;1.80;;
14681;SDS011;7429;52.498;13.480;2022-10-16T13:40:20;1.75;;;1.63;;
14681;SDS011;7429;52.498;13.480;2022-10-16T13:43:27;8.18;;;2.30;;
14681;SDS011;7429;52.498;13.480;2022-10-16T13:46:34;5.28;;;1.77;;
14681;SDS011;7429;52.498;13.480;2022-10-16T13:49:38;5.40;;;1.70;;
14681;SDS011;7429;52.498;13.480;2022-10-16T13:52:41;2.40;;;1.65;;
14681;SDS011;7429;52.498;13.480;2022-10-16T13:55:44;1.40;;;1.30;;
14681;SDS011;7429;52.498;13.480;2022-10-16T13:58:57;4.13;;;1.75;;
14681;SDS011;7429;52.498;13.480;2022-10-16T14:02:05;2.00;;;1.70;;
14681;SDS011;7429;52.498;13.480;2022-10-16T14:05:22;1.85;;;1.70;;
14681;SDS011;7429;52.498;13.480;2022-10-16T14:08:26;2.72;;;2.25;;
14681;SDS011;7429;52.498;13.480;2022-10-16T14:11:31;3.30;;;1.77;;
14681;SDS011;7429;52.498;13.480;2022-10-16T14:14:35;3.10;;;1.70;;
14681;SDS011;7429;52.498;13.480;2022-10-16T14:17:45;3.10;;;1.92;;
14681;SDS011;7429;52.498;13.480;2022-10-16T14:20:54;1.92;;;1.70;;
14681;SDS011;7429;52.498;13.480;2022-10-16T14:24:10;1.90;;;1.50;;
14681;SDS011;7429;52.498;13.480;2022-10-16T14:27:20;2.30;;;2.05;;
14681;SDS011;7429;52.498;13.480;2022-10-16T14:30:32;4.18;;;2.47;;
14681;SDS011;7429;52.498;13.480;2022-10-16T14:33:37;2.45;;;2.08;;
14681;SDS011;7429;52.498;13.480;2022-10-16T14:36:42;4.05;;;2.25;;
14681;SDS011;7429;52.498;13.480;2022-10-16T14:39:48;2.75;;;1.80;;
14681;SDS011;7429;52.498;13.480;2022-10-16T14:42:52;2.00;;;1.90;;
14681;SDS011;7429;52.498;13.480;2022-10-16T14:45:56;2.50;;;2.20;;
14681;SDS011;7429;52.498;13.480;2022-10-16T14:49:00;2.17;;;1.98;;
14681;SDS011;7429;52.498;13.480;2022-10-16T14:52:10;4.25;;;2.45;;
14681;SDS011;7429;52.498;13.480;2022-10-16T14:55:14;9.45;;;3.10;;
14681;SDS011;7429;52.498;13.480;2022-10-16T14:58:21;5.57;;;2.50;;
14681;SDS011;7429;52.498;13.480;2022-10-16T15:01:26;3.53;;;2.40;;
14681;SDS011;7429;52.498;13.480;2022-10-16T15:04:29;2.30;;;1.98;;
14681;SDS011;7429;52.498;13.480;2022-10-16T15:07:34;2.60;;;2.40;;
14681;SDS011;7429;52.498;13.480;2022-10-16T15:10:38;3.38;;;1.90;;
14681;SDS011;7429;52.498;13.480;2022-10-16T15:13:43;2.90;;;2.03;;
14681;SDS011;7429;52.498;13.480;2022-10-16T15:16:46;5.35;;;2.22;;
14681;SDS011;7429;52.498;13.480;2022-10-16T15:19:49;1.98;;;1.67;;
14681;SDS011;7429;52.498;13.480;2022-10-16T15:22:54;2.85;;;1.95;;
14681;SDS011;7429;52.498;13.480;2022-10-16T15:25:57;2.60;;;2.40;;
14681;SDS011;7429;52.498;13.480;2022-10-16T15:29:00;2.83;;;2.60;;
14681;SDS011;7429;52.498;13.480;2022-10-16T15:32:03;2.80;;;2.20;;
14681;SDS011;7429;52.498;13.480;2022-10-16T15:35:10;3.72;;;3.42;;
14681;SDS011;7429;52.498;13.480;2022-10-16T15:38:15;4.82;;;3.28;;
14681;SDS011;7429;52.498;13.480;2022-10-16T15:41:20;3.03;;;2.78;;
14681;SDS011;7429;52.498;13.480;2022-10-16T15:44:23;5.07;;;3.00;;
14681;SDS011;7429;52.498;13.480;2022-10-16T15:47:30;2.38;;;2.17;;
14681;SDS011;7429;52.498;13.480;2022-10-16T15:50:34;2.60;;;2.42;;
14681;SDS011;7429;52.498;13.480;2022-10-16T15:53:41;4.32;;;2.85;;
14681;SDS011;7429;52.498;13.480;2022-10-16T15:56:44;4.93;;;3.35;;
14681;SDS011;7429;52.498;13.480;2022-10-16T15:59:47;12.68;;;6.13;;
14681;SDS011;7429;52.498;13.480;2022-10-16T16:02:51;6.50;;;5.00;;
14681;SDS011;7429;52.498;13.480;2022-10-16T16:05:56;25.85;;;18.38;;
14681;SDS011;7429;52.498;13.480;2022-10-16T16:09:01;14.13;;;8.18;;
14681;SDS011;7429;52.498;13.480;2022-10-16T16:12:09;15.23;;;8.98;;
14681;SDS011;7429;52.498;13.480;2022-10-16T16:15:12;12.68;;;5.13;;
14681;SDS011;7429;52.498;13.480;2022-10-16T16:18:15;7.82;;;5.32;;
14681;SDS011;7429;52.498;13.480;2022-10-16T16:21:18;13.00;;;7.38;;
14681;SDS011;7429;52.498;13.480;2022-10-16T16:24:23;16.90;;;6.45;;
14681;SDS011;7429;52.498;13.480;2022-10-16T16:27:26;15.85;;;7.53;;
14681;SDS011;7429;52.498;13.480;2022-10-16T16:30:32;19.95;;;12.45;;
14681;SDS011;7429;52.498;13.480;2022-10-16T16:33:35;24.15;;;10.05;;
14681;SDS011;7429;52.498;13.480;2022-10-16T16:36:39;18.50;;;8.48;;
14681;SDS011;7429;52.498;13.480;2022-10-16T16:39:43;15.85;;;9.20;;
14681;SDS011;7429;52.498;13.480;2022-10-16T16:42:47;15.48;;;8.55;;
14681;SDS011;7429;52.498;13.480;2022-10-16T16:45:50;20.35;;;9.50;;
14681;SDS011;7429;52.498;13.480;2022-10-16T16:48:53;16.38;;;9.52;;
14681;SDS011;7429;52.498;13.480;2022-10-16T16:51:56;12.68;;;8.77;;
14681;SDS011;7429;52.498;13.480;2022-10-16T16:55:01;27.40;;;11.30;;
14681;SDS011;7429;52.498;13.480;2022-10-16T16:58:04;24.13;;;14.02;;
14681;SDS011;7429;52.498;13.480;2022-10-16T17:01:08;27.80;;;15.05;;
14681;SDS011;7429;52.498;13.480;2022-10-16T17:04:21;29.17;;;17.35;;
14681;SDS011;7429;52.498;13.480;2022-10-16T17:07:24;31.10;;;17.75;;
14681;SDS011;7429;52.498;13.480;2022-10-16T17:10:30;49.58;;;22.67;;
14681;SDS011;7429;52.498;13.480;2022-10-16T17:13:33;40.70;;;30.17;;
14681;SDS011;7429;52.498;13.480;2022-10-16T17:16:38;43.10;;;26.77;;
14681;SDS011;7429;52.498;13.480;2022-10-16T17:19:44;50.63;;;26.98;;
14681;SDS011;7429;52.498;13.480;2022-10-16T17:22:47;49.88;;;26.77;;
14681;SDS011;7429;52.498;13.480;2022-10-16T17:25:52;41.65;;;25.95;;
14681;SDS011;7429;52.498;13.480;2022-10-16T17:28:56;44.20;;;30.83;;
14681;SDS011;7429;52.498;13.480;2022-10-16T17:32:02;50.50;;;26.33;;
14681;SDS011;7429;52.498;13.480;2022-10-16T17:35:06;61.95;;;29.48;;
14681;SDS011;7429;52.498;13.480;2022-10-16T17:38:10;53.97;;;33.75;;
14681;SDS011;7429;52.498;13.480;2022-10-16T17:41:19;45.87;;;29.43;;
14681;SDS011;7429;52.498;13.480;2022-10-16T17:44:23;57.28;;;32.42;;
14681;SDS011;7429;52.498;13.480;2022-10-16T17:47:26;61.90;;;35.53;;
14681;SDS011;7429;52.498;13.480;2022-10-16T17:50:29;53.88;;;32.35;;
14681;SDS011;7429;52.498;13.480;2022-10-16T17:53:32;63.07;;;35.73;;
14681;SDS011;7429;52.498;13.480;2022-10-16T17:56:37;65.20;;;39.67;;
14681;SDS011;7429;52.498;13.480;2022-10-16T17:59:40;66.60;;;36.63;;
14681;SDS011;7429;52.498;13.480;2022-10-16T18:02:43;43.17;;;32.10;;
14681;SDS011;7429;52.498;13.480;2022-10-16T18:05:46;47.70;;;30.20;;
14681;SDS011;7429;52.498;13.480;2022-10-16T18:08:50;32.87;;;21.47;;
14681;SDS011;7429;52.498;13.480;2022-10-16T18:11:54;38.50;;;23.50;;
14681;SDS011;7429;52.498;13.480;2022-10-16T18:15:01;26.73;;;19.00;;
14681;SDS011;7429;52.498;13.480;2022-10-16T18:18:05;28.13;;;19.60;;
14681;SDS011;7429;52.498;13.480;2022-10-16T18:21:09;29.40;;;19.00;;
14681;SDS011;7429;52.498;13.480;2022-10-16T18:24:14;30.93;;;20.60;;
14681;SDS011;7429;52.498;13.480;2022-10-16T18:27:19;28.33;;;18.93;;
14681;SDS011;7429;52.498;13.480;2022-10-16T18:30:22;22.03;;;16.50;;
14681;SDS011;7429;52.498;13.480;2022-10-16T18:33:26;33.40;;;17.73;;
14681;SDS011;7429;52.498;13.480;2022-10-16T18:36:31;23.93;;;16.87;;
14681;SDS011;7429;52.498;13.480;2022-10-16T18:39:36;25.53;;;17.67;;
14681;SDS011;7429;52.498;13.480;2022-10-16T18:42:40;33.20;;;20.07;;
14681;SDS011;7429;52.498;13.480;2022-10-16T18:45:53;32.30;;;22.80;;
14681;SDS011;7429;52.498;13.480;2022-10-16T18:48:57;27.27;;;20.37;;